sensor_id;sensor_type;location;lat;lon;timestamp;temperature;humidity
7700;DHT22;3892;47.794;19.126;2023-05-02T00:00:40;19.70;33.50
7700;DHT22;3892;47.794;19.126;2023-05-02T00:03:08;19.70;33.50
7700;DHT22;3892;47.794;19.126;2023-05-02T00:05:37;19.60;33.50
7700;DHT22;3892;47.794;19.126;2023-05-02T00:08:06;19.60;33.40
7700;DHT22;3892;47.794;19.126;2023-05-02T00:10:35;19.60;33.50
7700;DHT22;3892;47.794;19.126;2023-05-02T00:13:03;19.60;33.70
7700;DHT22;3892;47.794;19.126;2023-05-02T00:15:31;19.60;33.70
7700;DHT22;3892;47.794;19.126;2023-05-02T00:17:59;19.60;33.60
7700;DHT22;3892;47.794;19.126;2023-05-02T00:20:28;19.60;33.80
7700;DHT22;3892;47.794;19.126;2023-05-02T00:22:56;19.60;33.80
7700;DHT22;3892;47.794;19.126;2023-05-02T00:25:24;19.60;33.90
7700;DHT22;3892;47.794;19.126;2023-05-02T00:27:54;19.50;33.80
7700;DHT22;3892;47.794;19.126;2023-05-02T00:30:22;19.60;33.90
7700;DHT22;3892;47.794;19.126;2023-05-02T00:32:50;19.60;33.80
7700;DHT22;3892;47.794;19.126;2023-05-02T00:35:19;19.60;33.80
7700;DHT22;3892;47.794;19.126;2023-05-02T00:37:47;19.50;33.80
7700;DHT22;3892;47.794;19.126;2023-05-02T00:40:16;19.50;33.80
7700;DHT22;3892;47.794;19.126;2023-05-02T00:42:44;19.50;33.90
7700;DHT22;3892;47.794;19.126;2023-05-02T00:45:13;19.50;33.80
7700;DHT22;3892;47.794;19.126;2023-05-02T00:47:41;19.50;33.80
7700;DHT22;3892;47.794;19.126;2023-05-02T00:50:09;19.50;33.80
7700;DHT22;3892;47.794;19.126;2023-05-02T00:52:37;19.50;33.60
7700;DHT22;3892;47.794;19.126;2023-05-02T00:55:06;19.60;34.00
7700;DHT22;3892;47.794;19.126;2023-05-02T00:57:34;19.60;34.20
7700;DHT22;3892;47.794;19.126;2023-05-02T01:00:03;19.60;33.90
7700;DHT22;3892;47.794;19.126;2023-05-02T01:02:45;19.60;33.90
7700;DHT22;3892;47.794;19.126;2023-05-02T01:05:18;19.60;33.80
7700;DHT22;3892;47.794;19.126;2023-05-02T01:08:02;19.40;33.70
7700;DHT22;3892;47.794;19.126;2023-05-02T01:10:46;19.40;33.80
7700;DHT22;3892;47.794;19.126;2023-05-02T01:13:19;19.40;34.20
7700;DHT22;3892;47.794;19.126;2023-05-02T01:15:49;19.40;34.00
7700;DHT22;3892;47.794;19.126;2023-05-02T01:18:21;19.40;34.00
7700;DHT22;3892;47.794;19.126;2023-05-02T01:21:01;19.40;33.70
7700;DHT22;3892;47.794;19.126;2023-05-02T01:23:34;19.40;34.10
7700;DHT22;3892;47.794;19.126;2023-05-02T01:26:14;19.40;34.20
7700;DHT22;3892;47.794;19.126;2023-05-02T01:28:58;19.50;34.40
7700;DHT22;3892;47.794;19.126;2023-05-02T01:31:29;19.50;34.40
7700;DHT22;3892;47.794;19.126;2023-05-02T01:33:59;19.50;34.70
7700;DHT22;3892;47.794;19.126;2023-05-02T01:36:29;19.50;34.60
7700;DHT22;3892;47.794;19.126;2023-05-02T01:38:59;19.40;34.70
7700;DHT22;3892;47.794;19.126;2023-05-02T01:41:30;19.40;34.50
7700;DHT22;3892;47.794;19.126;2023-05-02T01:44:01;19.40;34.80
7700;DHT22;3892;47.794;19.126;2023-05-02T01:46:32;19.40;34.70
7700;DHT22;3892;47.794;19.126;2023-05-02T01:49:02;19.40;34.70
7700;DHT22;3892;47.794;19.126;2023-05-02T01:51:34;19.40;34.60
7700;DHT22;3892;47.794;19.126;2023-05-02T01:54:04;19.40;34.90
7700;DHT22;3892;47.794;19.126;2023-05-02T01:56:35;19.50;34.90
7700;DHT22;3892;47.794;19.126;2023-05-02T01:59:07;19.50;34.80
7700;DHT22;3892;47.794;19.126;2023-05-02T02:01:37;19.50;34.70
7700;DHT22;3892;47.794;19.126;2023-05-02T02:04:08;19.50;34.80
7700;DHT22;3892;47.794;19.126;2023-05-02T02:06:38;19.50;34.80
7700;DHT22;3892;47.794;19.126;2023-05-02T02:09:09;19.60;35.00
7700;DHT22;3892;47.794;19.126;2023-05-02T02:11:43;19.60;35.10
7700;DHT22;3892;47.794;19.126;2023-05-02T02:14:17;19.60;35.10
7700;DHT22;3892;47.794;19.126;2023-05-02T02:16:47;19.50;35.00
7700;DHT22;3892;47.794;19.126;2023-05-02T02:19:17;19.50;35.10
7700;DHT22;3892;47.794;19.126;2023-05-02T02:21:47;19.50;35.20
7700;DHT22;3892;47.794;19.126;2023-05-02T02:24:17;19.60;35.30
7700;DHT22;3892;47.794;19.126;2023-05-02T02:26:47;19.50;35.20
7700;DHT22;3892;47.794;19.126;2023-05-02T02:29:17;19.50;35.20
7700;DHT22;3892;47.794;19.126;2023-05-02T02:31:45;19.50;35.30
7700;DHT22;3892;47.794;19.126;2023-05-02T02:34:13;19.50;35.30
7700;DHT22;3892;47.794;19.126;2023-05-02T02:36:44;19.50;35.40
7700;DHT22;3892;47.794;19.126;2023-05-02T02:39:21;19.50;35.40
7700;DHT22;3892;47.794;19.126;2023-05-02T02:41:59;19.40;35.40
7700;DHT22;3892;47.794;19.126;2023-05-02T02:44:39;19.40;35.40
7700;DHT22;3892;47.794;19.126;2023-05-02T02:47:12;19.40;35.60
7700;DHT22;3892;47.794;19.126;2023-05-02T02:49:47;19.40;36.30
7700;DHT22;3892;47.794;19.126;2023-05-02T02:52:23;19.40;35.70
7700;DHT22;3892;47.794;19.126;2023-05-02T02:54:58;19.40;35.90
7700;DHT22;3892;47.794;19.126;2023-05-02T02:57:34;19.50;36.00
7700;DHT22;3892;47.794;19.126;2023-05-02T03:00:11;19.50;36.10
7700;DHT22;3892;47.794;19.126;2023-05-02T03:02:41;19.40;36.20
7700;DHT22;3892;47.794;19.126;2023-05-02T03:05:10;19.40;36.20
7700;DHT22;3892;47.794;19.126;2023-05-02T03:07:38;19.40;36.20
7700;DHT22;3892;47.794;19.126;2023-05-02T03:10:07;19.40;36.20
7700;DHT22;3892;47.794;19.126;2023-05-02T03:12:35;19.40;36.30
7700;DHT22;3892;47.794;19.126;2023-05-02T03:15:13;19.40;35.60
7700;DHT22;3892;47.794;19.126;2023-05-02T03:17:46;19.30;35.30
7700;DHT22;3892;47.794;19.126;2023-05-02T03:20:14;19.30;35.30
7700;DHT22;3892;47.794;19.126;2023-05-02T03:22:42;19.30;35.50
7700;DHT22;3892;47.794;19.126;2023-05-02T03:25:10;19.30;35.60
7700;DHT22;3892;47.794;19.126;2023-05-02T03:27:38;19.30;35.70
7700;DHT22;3892;47.794;19.126;2023-05-02T03:30:09;19.30;35.70
7700;DHT22;3892;47.794;19.126;2023-05-02T03:32:37;19.20;35.50
7700;DHT22;3892;47.794;19.126;2023-05-02T03:35:06;19.20;35.60
7700;DHT22;3892;47.794;19.126;2023-05-02T03:37:34;19.20;35.80
7700;DHT22;3892;47.794;19.126;2023-05-02T03:40:02;19.20;35.90
7700;DHT22;3892;47.794;19.126;2023-05-02T03:42:30;19.20;35.90
7700;DHT22;3892;47.794;19.126;2023-05-02T03:44:59;19.10;36.00
7700;DHT22;3892;47.794;19.126;2023-05-02T03:47:28;19.10;36.10
7700;DHT22;3892;47.794;19.126;2023-05-02T03:49:57;19.10;36.20
7700;DHT22;3892;47.794;19.126;2023-05-02T03:52:25;19.20;36.40
7700;DHT22;3892;47.794;19.126;2023-05-02T03:54:53;19.10;36.30
7700;DHT22;3892;47.794;19.126;2023-05-02T03:57:21;19.10;36.20
7700;DHT22;3892;47.794;19.126;2023-05-02T03:59:49;19.10;36.30
7700;DHT22;3892;47.794;19.126;2023-05-02T04:02:17;19.10;36.40
7700;DHT22;3892;47.794;19.126;2023-05-02T04:04:46;19.10;36.50
7700;DHT22;3892;47.794;19.126;2023-05-02T04:07:14;19.00;36.50
7700;DHT22;3892;47.794;19.126;2023-05-02T04:09:45;19.10;36.70
7700;DHT22;3892;47.794;19.126;2023-05-02T04:12:14;19.00;36.70
7700;DHT22;3892;47.794;19.126;2023-05-02T04:14:42;19.00;36.80
7700;DHT22;3892;47.794;19.126;2023-05-02T04:17:10;19.00;36.80
7700;DHT22;3892;47.794;19.126;2023-05-02T04:19:39;19.00;36.90
7700;DHT22;3892;47.794;19.126;2023-05-02T04:22:08;19.00;36.90
7700;DHT22;3892;47.794;19.126;2023-05-02T04:24:36;19.00;37.00
7700;DHT22;3892;47.794;19.126;2023-05-02T04:27:04;19.00;37.20
7700;DHT22;3892;47.794;19.126;2023-05-02T04:29:33;19.00;37.30
7700;DHT22;3892;47.794;19.126;2023-05-02T04:32:01;19.00;37.20
7700;DHT22;3892;47.794;19.126;2023-05-02T04:34:29;19.00;37.10
7700;DHT22;3892;47.794;19.126;2023-05-02T04:36:58;19.00;37.30
7700;DHT22;3892;47.794;19.126;2023-05-02T04:39:28;19.00;37.30
7700;DHT22;3892;47.794;19.126;2023-05-02T04:41:56;19.00;37.50
7700;DHT22;3892;47.794;19.126;2023-05-02T04:44:24;19.00;37.50
7700;DHT22;3892;47.794;19.126;2023-05-02T04:46:52;19.00;37.40
7700;DHT22;3892;47.794;19.126;2023-05-02T04:49:20;19.10;37.60
7700;DHT22;3892;47.794;19.126;2023-05-02T04:51:48;19.10;37.50
7700;DHT22;3892;47.794;19.126;2023-05-02T04:54:18;19.00;37.60
7700;DHT22;3892;47.794;19.126;2023-05-02T04:56:48;19.10;37.70
7700;DHT22;3892;47.794;19.126;2023-05-02T04:59:16;19.10;37.70
7700;DHT22;3892;47.794;19.126;2023-05-02T05:01:44;19.10;37.90
7700;DHT22;3892;47.794;19.126;2023-05-02T05:04:12;19.10;37.90
7700;DHT22;3892;47.794;19.126;2023-05-02T05:06:40;19.10;37.70
7700;DHT22;3892;47.794;19.126;2023-05-02T05:09:09;19.20;37.60
7700;DHT22;3892;47.794;19.126;2023-05-02T05:11:37;19.20;37.30
7700;DHT22;3892;47.794;19.126;2023-05-02T05:14:06;19.20;37.00
7700;DHT22;3892;47.794;19.126;2023-05-02T05:16:34;19.30;37.10
7700;DHT22;3892;47.794;19.126;2023-05-02T05:19:03;19.30;37.10
7700;DHT22;3892;47.794;19.126;2023-05-02T05:21:31;19.30;37.10
7700;DHT22;3892;47.794;19.126;2023-05-02T05:23:59;19.20;36.40
7700;DHT22;3892;47.794;19.126;2023-05-02T05:26:28;19.30;36.70
7700;DHT22;3892;47.794;19.126;2023-05-02T05:28:55;19.30;36.80
7700;DHT22;3892;47.794;19.126;2023-05-02T05:31:25;19.40;37.20
7700;DHT22;3892;47.794;19.126;2023-05-02T05:33:53;19.40;37.30
7700;DHT22;3892;47.794;19.126;2023-05-02T05:36:21;19.50;37.50
7700;DHT22;3892;47.794;19.126;2023-05-02T05:38:50;19.50;37.80
7700;DHT22;3892;47.794;19.126;2023-05-02T05:41:18;19.50;37.80
7700;DHT22;3892;47.794;19.126;2023-05-02T05:43:46;19.50;38.00
7700;DHT22;3892;47.794;19.126;2023-05-02T05:46:14;19.40;38.10
7700;DHT22;3892;47.794;19.126;2023-05-02T05:48:44;19.40;38.60
7700;DHT22;3892;47.794;19.126;2023-05-02T05:51:12;19.50;38.80
7700;DHT22;3892;47.794;19.126;2023-05-02T05:53:40;19.50;39.10
7700;DHT22;3892;47.794;19.126;2023-05-02T05:56:08;19.60;38.80
7700;DHT22;3892;47.794;19.126;2023-05-02T05:58:37;19.70;38.20
7700;DHT22;3892;47.794;19.126;2023-05-02T06:01:06;19.70;38.20
7700;DHT22;3892;47.794;19.126;2023-05-02T06:03:34;19.90;38.20
7700;DHT22;3892;47.794;19.126;2023-05-02T06:06:04;20.00;38.40
7700;DHT22;3892;47.794;19.126;2023-05-02T06:08:34;20.10;38.50
7700;DHT22;3892;47.794;19.126;2023-05-02T06:11:02;20.10;38.20
7700;DHT22;3892;47.794;19.126;2023-05-02T06:13:31;20.30;38.30
7700;DHT22;3892;47.794;19.126;2023-05-02T06:16:00;20.30;38.10
7700;DHT22;3892;47.794;19.126;2023-05-02T06:18:28;20.40;38.20
7700;DHT22;3892;47.794;19.126;2023-05-02T06:20:56;20.50;37.80
7700;DHT22;3892;47.794;19.126;2023-05-02T06:23:27;20.50;37.40
7700;DHT22;3892;47.794;19.126;2023-05-02T06:25:58;20.50;36.80
7700;DHT22;3892;47.794;19.126;2023-05-02T06:28:26;20.50;37.20
7700;DHT22;3892;47.794;19.126;2023-05-02T06:30:58;20.60;36.60
7700;DHT22;3892;47.794;19.126;2023-05-02T06:33:26;20.60;36.70
7700;DHT22;3892;47.794;19.126;2023-05-02T06:35:55;20.50;35.80
7700;DHT22;3892;47.794;19.126;2023-05-02T06:38:24;20.50;35.90
7700;DHT22;3892;47.794;19.126;2023-05-02T06:40:54;20.50;35.40
7700;DHT22;3892;47.794;19.126;2023-05-02T06:43:22;20.50;34.80
7700;DHT22;3892;47.794;19.126;2023-05-02T06:45:52;20.50;34.70
7700;DHT22;3892;47.794;19.126;2023-05-02T06:48:21;20.50;34.60
7700;DHT22;3892;47.794;19.126;2023-05-02T06:50:50;20.60;34.90
7700;DHT22;3892;47.794;19.126;2023-05-02T06:53:19;20.60;34.80
7700;DHT22;3892;47.794;19.126;2023-05-02T06:55:47;20.70;34.40
7700;DHT22;3892;47.794;19.126;2023-05-02T06:58:17;20.70;34.40
7700;DHT22;3892;47.794;19.126;2023-05-02T07:00:46;20.70;34.70
7700;DHT22;3892;47.794;19.126;2023-05-02T07:03:16;20.70;34.50
7700;DHT22;3892;47.794;19.126;2023-05-02T07:05:44;20.80;34.50
7700;DHT22;3892;47.794;19.126;2023-05-02T07:08:12;20.80;34.70
7700;DHT22;3892;47.794;19.126;2023-05-02T07:10:40;20.90;34.90
7700;DHT22;3892;47.794;19.126;2023-05-02T07:13:08;20.90;34.90
7700;DHT22;3892;47.794;19.126;2023-05-02T07:15:37;21.00;35.20
7700;DHT22;3892;47.794;19.126;2023-05-02T07:18:05;21.10;35.30
7700;DHT22;3892;47.794;19.126;2023-05-02T07:20:33;21.10;35.00
7700;DHT22;3892;47.794;19.126;2023-05-02T07:23:01;21.20;35.20
7700;DHT22;3892;47.794;19.126;2023-05-02T07:25:29;21.10;35.10
7700;DHT22;3892;47.794;19.126;2023-05-02T07:27:57;21.30;34.90
7700;DHT22;3892;47.794;19.126;2023-05-02T07:30:25;21.40;34.80
7700;DHT22;3892;47.794;19.126;2023-05-02T07:32:55;21.40;34.90
7700;DHT22;3892;47.794;19.126;2023-05-02T07:35:23;21.40;34.90
7700;DHT22;3892;47.794;19.126;2023-05-02T07:37:51;21.40;34.50
7700;DHT22;3892;47.794;19.126;2023-05-02T07:40:19;21.60;34.90
7700;DHT22;3892;47.794;19.126;2023-05-02T07:42:47;21.60;34.80
7700;DHT22;3892;47.794;19.126;2023-05-02T07:45:16;21.70;35.00
7700;DHT22;3892;47.794;19.126;2023-05-02T07:47:44;21.80;35.30
7700;DHT22;3892;47.794;19.126;2023-05-02T07:50:14;21.80;35.10
7700;DHT22;3892;47.794;19.126;2023-05-02T07:52:42;21.90;35.10
7700;DHT22;3892;47.794;19.126;2023-05-02T07:55:10;21.90;34.50
7700;DHT22;3892;47.794;19.126;2023-05-02T07:57:38;21.90;35.10
7700;DHT22;3892;47.794;19.126;2023-05-02T08:00:08;22.00;35.10
7700;DHT22;3892;47.794;19.126;2023-05-02T08:02:37;22.00;35.20
7700;DHT22;3892;47.794;19.126;2023-05-02T08:05:06;22.10;35.30
7700;DHT22;3892;47.794;19.126;2023-05-02T08:07:35;22.20;35.70
7700;DHT22;3892;47.794;19.126;2023-05-02T08:10:04;22.20;35.40
7700;DHT22;3892;47.794;19.126;2023-05-02T08:12:37;22.20;34.90
7700;DHT22;3892;47.794;19.126;2023-05-02T08:15:06;22.30;34.70
7700;DHT22;3892;47.794;19.126;2023-05-02T08:17:35;22.30;34.80
7700;DHT22;3892;47.794;19.126;2023-05-02T08:20:03;22.40;35.00
7700;DHT22;3892;47.794;19.126;2023-05-02T08:22:31;22.50;35.00
7700;DHT22;3892;47.794;19.126;2023-05-02T08:25:01;22.60;35.70
7700;DHT22;3892;47.794;19.126;2023-05-02T08:27:29;22.70;35.70
7700;DHT22;3892;47.794;19.126;2023-05-02T08:29:57;22.70;34.90
7700;DHT22;3892;47.794;19.126;2023-05-02T08:32:26;22.70;34.50
7700;DHT22;3892;47.794;19.126;2023-05-02T08:34:55;22.80;34.30
7700;DHT22;3892;47.794;19.126;2023-05-02T08:37:23;22.70;34.20
7700;DHT22;3892;47.794;19.126;2023-05-02T08:39:51;22.80;34.90
7700;DHT22;3892;47.794;19.126;2023-05-02T08:42:21;22.80;35.20
7700;DHT22;3892;47.794;19.126;2023-05-02T08:44:50;22.90;34.90
7700;DHT22;3892;47.794;19.126;2023-05-02T08:47:18;22.80;34.40
7700;DHT22;3892;47.794;19.126;2023-05-02T08:49:47;22.90;34.50
7700;DHT22;3892;47.794;19.126;2023-05-02T08:52:18;23.00;34.50
7700;DHT22;3892;47.794;19.126;2023-05-02T08:54:47;23.10;34.80
7700;DHT22;3892;47.794;19.126;2023-05-02T08:57:17;23.20;35.00
7700;DHT22;3892;47.794;19.126;2023-05-02T08:59:46;23.30;34.00
7700;DHT22;3892;47.794;19.126;2023-05-02T09:02:22;23.40;33.60
7700;DHT22;3892;47.794;19.126;2023-05-02T09:04:53;23.40;33.70
7700;DHT22;3892;47.794;19.126;2023-05-02T09:07:21;23.50;33.90
7700;DHT22;3892;47.794;19.126;2023-05-02T09:09:49;23.50;34.00
7700;DHT22;3892;47.794;19.126;2023-05-02T09:12:23;23.70;34.90
7700;DHT22;3892;47.794;19.126;2023-05-02T09:15:11;23.80;34.50
7700;DHT22;3892;47.794;19.126;2023-05-02T09:17:44;23.90;34.10
7700;DHT22;3892;47.794;19.126;2023-05-02T09:20:14;23.90;34.10
7700;DHT22;3892;47.794;19.126;2023-05-02T09:22:47;24.00;33.30
7700;DHT22;3892;47.794;19.126;2023-05-02T09:25:16;24.00;33.20
7700;DHT22;3892;47.794;19.126;2023-05-02T09:27:49;24.10;33.10
7700;DHT22;3892;47.794;19.126;2023-05-02T09:30:21;24.10;33.20
7700;DHT22;3892;47.794;19.126;2023-05-02T09:32:50;24.20;33.30
7700;DHT22;3892;47.794;19.126;2023-05-02T09:35:21;24.20;33.40
7700;DHT22;3892;47.794;19.126;2023-05-02T09:37:52;24.40;33.80
7700;DHT22;3892;47.794;19.126;2023-05-02T09:40:21;24.50;34.10
7700;DHT22;3892;47.794;19.126;2023-05-02T09:42:50;24.60;33.70
7700;DHT22;3892;47.794;19.126;2023-05-02T09:45:23;24.70;33.30
7700;DHT22;3892;47.794;19.126;2023-05-02T09:47:52;24.70;33.80
7700;DHT22;3892;47.794;19.126;2023-05-02T09:50:36;24.80;33.50
7700;DHT22;3892;47.794;19.126;2023-05-02T09:53:06;24.90;33.20
7700;DHT22;3892;47.794;19.126;2023-05-02T09:55:35;24.80;33.00
7700;DHT22;3892;47.794;19.126;2023-05-02T09:58:03;24.90;33.40
7700;DHT22;3892;47.794;19.126;2023-05-02T10:00:43;24.90;33.20
7700;DHT22;3892;47.794;19.126;2023-05-02T10:03:15;25.00;33.70
7700;DHT22;3892;47.794;19.126;2023-05-02T10:05:45;25.00;33.60
7700;DHT22;3892;47.794;19.126;2023-05-02T10:08:15;25.10;32.70
7700;DHT22;3892;47.794;19.126;2023-05-02T10:10:49;25.00;32.90
7700;DHT22;3892;47.794;19.126;2023-05-02T10:13:19;25.10;32.30
7700;DHT22;3892;47.794;19.126;2023-05-02T10:15:53;25.00;33.10
7700;DHT22;3892;47.794;19.126;2023-05-02T10:18:32;25.00;33.00
7700;DHT22;3892;47.794;19.126;2023-05-02T10:21:07;25.10;33.10
7700;DHT22;3892;47.794;19.126;2023-05-02T10:23:40;25.10;33.20
7700;DHT22;3892;47.794;19.126;2023-05-02T10:26:11;25.20;33.80
7700;DHT22;3892;47.794;19.126;2023-05-02T10:28:40;25.20;33.00
7700;DHT22;3892;47.794;19.126;2023-05-02T10:31:10;25.30;33.50
7700;DHT22;3892;47.794;19.126;2023-05-02T10:33:40;25.40;34.90
7700;DHT22;3892;47.794;19.126;2023-05-02T10:36:09;25.50;33.90
7700;DHT22;3892;47.794;19.126;2023-05-02T10:38:40;25.50;34.10
7700;DHT22;3892;47.794;19.126;2023-05-02T10:41:15;25.70;34.80
7700;DHT22;3892;47.794;19.126;2023-05-02T10:43:45;25.90;34.40
7700;DHT22;3892;47.794;19.126;2023-05-02T10:46:32;26.00;33.60
7700;DHT22;3892;47.794;19.126;2023-05-02T10:49:02;26.20;34.40
7700;DHT22;3892;47.794;19.126;2023-05-02T10:51:30;26.40;34.10
7700;DHT22;3892;47.794;19.126;2023-05-02T10:54:20;26.50;33.00
7700;DHT22;3892;47.794;19.126;2023-05-02T10:57:05;26.50;32.50
7700;DHT22;3892;47.794;19.126;2023-05-02T10:59:35;26.50;32.20
7700;DHT22;3892;47.794;19.126;2023-05-02T11:05:12;26.80;33.30
7700;DHT22;3892;47.794;19.126;2023-05-02T11:07:40;26.90;32.90
7700;DHT22;3892;47.794;19.126;2023-05-02T11:10:24;27.00;33.60
7700;DHT22;3892;47.794;19.126;2023-05-02T11:12:54;27.10;33.70
7700;DHT22;3892;47.794;19.126;2023-05-02T11:15:54;27.20;33.00
7700;DHT22;3892;47.794;19.126;2023-05-02T11:18:24;27.40;34.10
7700;DHT22;3892;47.794;19.126;2023-05-02T11:21:25;27.50;32.60
7700;DHT22;3892;47.794;19.126;2023-05-02T11:24:37;27.60;33.50
7700;DHT22;3892;47.794;19.126;2023-05-02T11:27:36;27.70;33.40
7700;DHT22;3892;47.794;19.126;2023-05-02T11:30:05;27.80;32.50
7700;DHT22;3892;47.794;19.126;2023-05-02T11:33:10;27.90;32.60
7700;DHT22;3892;47.794;19.126;2023-05-02T11:35:41;27.90;32.10
7700;DHT22;3892;47.794;19.126;2023-05-02T11:38:11;28.00;31.60
7700;DHT22;3892;47.794;19.126;2023-05-02T11:40:39;28.10;32.50
7700;DHT22;3892;47.794;19.126;2023-05-02T11:43:15;28.10;30.20
7700;DHT22;3892;47.794;19.126;2023-05-02T11:45:43;28.10;31.00
7700;DHT22;3892;47.794;19.126;2023-05-02T11:48:13;28.10;31.40
7700;DHT22;3892;47.794;19.126;2023-05-02T11:50:43;28.30;32.60
7700;DHT22;3892;47.794;19.126;2023-05-02T11:53:16;28.40;31.20
7700;DHT22;3892;47.794;19.126;2023-05-02T11:55:46;28.50;31.60
7700;DHT22;3892;47.794;19.126;2023-05-02T11:58:16;28.70;30.80
7700;DHT22;3892;47.794;19.126;2023-05-02T12:00:45;28.70;30.20
7700;DHT22;3892;47.794;19.126;2023-05-02T12:03:28;28.80;30.10
7700;DHT22;3892;47.794;19.126;2023-05-02T12:06:07;28.90;30.10
7700;DHT22;3892;47.794;19.126;2023-05-02T12:08:37;28.90;29.80
7700;DHT22;3892;47.794;19.126;2023-05-02T12:11:05;28.90;30.00
7700;DHT22;3892;47.794;19.126;2023-05-02T12:13:34;28.90;30.00
7700;DHT22;3892;47.794;19.126;2023-05-02T12:16:02;28.80;29.60
7700;DHT22;3892;47.794;19.126;2023-05-02T12:18:31;28.80;29.80
7700;DHT22;3892;47.794;19.126;2023-05-02T12:21:01;28.90;30.50
7700;DHT22;3892;47.794;19.126;2023-05-02T12:23:29;28.90;30.60
7700;DHT22;3892;47.794;19.126;2023-05-02T12:25:57;28.90;30.40
7700;DHT22;3892;47.794;19.126;2023-05-02T12:28:25;28.80;30.10
7700;DHT22;3892;47.794;19.126;2023-05-02T12:30:53;28.80;30.80
7700;DHT22;3892;47.794;19.126;2023-05-02T12:33:22;28.60;30.50
7700;DHT22;3892;47.794;19.126;2023-05-02T12:35:50;28.50;30.90
7700;DHT22;3892;47.794;19.126;2023-05-02T12:38:21;28.40;31.00
7700;DHT22;3892;47.794;19.126;2023-05-02T12:40:52;28.40;31.60
7700;DHT22;3892;47.794;19.126;2023-05-02T12:43:23;28.50;32.20
7700;DHT22;3892;47.794;19.126;2023-05-02T12:46:08;28.50;31.40
7700;DHT22;3892;47.794;19.126;2023-05-02T12:48:36;28.50;31.30
7700;DHT22;3892;47.794;19.126;2023-05-02T12:51:05;28.50;31.70
7700;DHT22;3892;47.794;19.126;2023-05-02T12:53:39;28.40;31.00
7700;DHT22;3892;47.794;19.126;2023-05-02T12:56:08;28.40;32.20
7700;DHT22;3892;47.794;19.126;2023-05-02T12:58:40;28.40;30.90
7700;DHT22;3892;47.794;19.126;2023-05-02T13:01:10;28.40;31.40
7700;DHT22;3892;47.794;19.126;2023-05-02T13:03:38;28.30;30.60
7700;DHT22;3892;47.794;19.126;2023-05-02T13:06:07;28.10;30.90
7700;DHT22;3892;47.794;19.126;2023-05-02T13:08:35;27.90;30.80
7700;DHT22;3892;47.794;19.126;2023-05-02T13:11:05;27.80;31.30
7700;DHT22;3892;47.794;19.126;2023-05-02T13:13:33;27.80;31.90
7700;DHT22;3892;47.794;19.126;2023-05-02T13:16:01;27.80;32.70
7700;DHT22;3892;47.794;19.126;2023-05-02T13:18:30;27.70;31.40
7700;DHT22;3892;47.794;19.126;2023-05-02T13:20:58;27.60;31.30
7700;DHT22;3892;47.794;19.126;2023-05-02T13:23:26;27.50;31.30
7700;DHT22;3892;47.794;19.126;2023-05-02T13:25:54;27.50;31.50
7700;DHT22;3892;47.794;19.126;2023-05-02T13:28:23;27.50;31.90
7700;DHT22;3892;47.794;19.126;2023-05-02T13:30:51;27.50;32.00
7700;DHT22;3892;47.794;19.126;2023-05-02T13:33:19;27.40;31.80
7700;DHT22;3892;47.794;19.126;2023-05-02T13:35:47;27.50;32.20
7700;DHT22;3892;47.794;19.126;2023-05-02T13:38:19;27.40;32.50
7700;DHT22;3892;47.794;19.126;2023-05-02T13:41:03;27.40;31.60
7700;DHT22;3892;47.794;19.126;2023-05-02T13:43:51;27.30;31.60
7700;DHT22;3892;47.794;19.126;2023-05-02T13:46:19;27.30;32.10
7700;DHT22;3892;47.794;19.126;2023-05-02T13:48:47;27.30;32.20
7700;DHT22;3892;47.794;19.126;2023-05-02T13:51:15;27.30;32.30
7700;DHT22;3892;47.794;19.126;2023-05-02T13:53:44;27.20;32.20
7700;DHT22;3892;47.794;19.126;2023-05-02T13:56:12;27.20;31.70
7700;DHT22;3892;47.794;19.126;2023-05-02T13:58:40;27.10;31.60
7700;DHT22;3892;47.794;19.126;2023-05-02T14:01:09;27.00;32.30
7700;DHT22;3892;47.794;19.126;2023-05-02T14:03:37;26.90;33.30
7700;DHT22;3892;47.794;19.126;2023-05-02T14:06:05;26.90;33.10
7700;DHT22;3892;47.794;19.126;2023-05-02T14:08:33;26.80;33.40
7700;DHT22;3892;47.794;19.126;2023-05-02T14:11:01;26.80;34.00
7700;DHT22;3892;47.794;19.126;2023-05-02T14:13:30;26.80;34.80
7700;DHT22;3892;47.794;19.126;2023-05-02T14:15:59;26.80;33.90
7700;DHT22;3892;47.794;19.126;2023-05-02T14:18:28;26.80;34.70
7700;DHT22;3892;47.794;19.126;2023-05-02T14:20:57;26.90;35.00
7700;DHT22;3892;47.794;19.126;2023-05-02T14:23:25;26.90;34.80
7700;DHT22;3892;47.794;19.126;2023-05-02T14:25:54;26.90;34.40
7700;DHT22;3892;47.794;19.126;2023-05-02T14:28:22;26.90;34.40
7700;DHT22;3892;47.794;19.126;2023-05-02T14:30:50;26.90;34.80
7700;DHT22;3892;47.794;19.126;2023-05-02T14:33:18;26.90;34.60
7700;DHT22;3892;47.794;19.126;2023-05-02T14:35:48;26.90;34.80
7700;DHT22;3892;47.794;19.126;2023-05-02T14:38:16;26.90;35.00
7700;DHT22;3892;47.794;19.126;2023-05-02T14:40:44;26.90;35.40
7700;DHT22;3892;47.794;19.126;2023-05-02T14:43:12;26.80;35.30
7700;DHT22;3892;47.794;19.126;2023-05-02T14:45:40;26.80;34.50
7700;DHT22;3892;47.794;19.126;2023-05-02T14:48:08;26.80;34.90
7700;DHT22;3892;47.794;19.126;2023-05-02T14:50:39;26.80;35.30
7700;DHT22;3892;47.794;19.126;2023-05-02T14:53:09;26.80;34.60
7700;DHT22;3892;47.794;19.126;2023-05-02T14:55:38;26.70;33.70
7700;DHT22;3892;47.794;19.126;2023-05-02T14:58:07;26.70;33.00
7700;DHT22;3892;47.794;19.126;2023-05-02T15:00:36;26.70;33.10
7700;DHT22;3892;47.794;19.126;2023-05-02T15:03:05;26.70;33.70
7700;DHT22;3892;47.794;19.126;2023-05-02T15:05:35;26.70;33.50
7700;DHT22;3892;47.794;19.126;2023-05-02T15:08:03;26.70;33.70
7700;DHT22;3892;47.794;19.126;2023-05-02T15:10:36;26.70;33.30
7700;DHT22;3892;47.794;19.126;2023-05-02T15:13:04;26.70;32.70
7700;DHT22;3892;47.794;19.126;2023-05-02T15:15:33;26.70;32.30
7700;DHT22;3892;47.794;19.126;2023-05-02T15:18:03;26.70;32.50
7700;DHT22;3892;47.794;19.126;2023-05-02T15:20:31;26.70;32.20
7700;DHT22;3892;47.794;19.126;2023-05-02T15:22:59;26.60;31.70
7700;DHT22;3892;47.794;19.126;2023-05-02T15:25:29;26.50;31.60
7700;DHT22;3892;47.794;19.126;2023-05-02T15:27:59;26.60;32.00
7700;DHT22;3892;47.794;19.126;2023-05-02T15:30:28;26.60;32.40
7700;DHT22;3892;47.794;19.126;2023-05-02T15:32:56;26.60;32.40
7700;DHT22;3892;47.794;19.126;2023-05-02T15:35:24;26.60;32.30
7700;DHT22;3892;47.794;19.126;2023-05-02T15:37:52;26.60;31.90
7700;DHT22;3892;47.794;19.126;2023-05-02T15:40:20;26.70;33.10
7700;DHT22;3892;47.794;19.126;2023-05-02T15:42:48;26.60;34.10
7700;DHT22;3892;47.794;19.126;2023-05-02T15:45:17;26.60;34.50
7700;DHT22;3892;47.794;19.126;2023-05-02T15:47:48;26.60;34.80
7700;DHT22;3892;47.794;19.126;2023-05-02T15:50:17;26.50;35.30
7700;DHT22;3892;47.794;19.126;2023-05-02T15:52:45;26.50;34.70
7700;DHT22;3892;47.794;19.126;2023-05-02T15:55:13;26.50;35.20
7700;DHT22;3892;47.794;19.126;2023-05-02T15:57:41;26.50;35.80
7700;DHT22;3892;47.794;19.126;2023-05-02T16:00:10;26.50;36.50
7700;DHT22;3892;47.794;19.126;2023-05-02T16:02:43;26.50;38.20
7700;DHT22;3892;47.794;19.126;2023-05-02T16:05:12;26.50;38.10
7700;DHT22;3892;47.794;19.126;2023-05-02T16:07:40;26.40;38.80